Time;durP1;ratioP1;P1;durP2;ratioP2;P2;SDS_P1;SDS_P2;PMS_P1;PMS_P2;Temp;Humidity;BMP_temperature;BMP_pressure;BME280_temperature;BME280_humidity;BME280_pressure;Samples;Min_cycle;Max_cycle;Signal;HPM_P1;HPM_P2
2021/08/14 00:01:13;;;;;;;6.60;5.72;;;;;;;26.59;47.09;102179.13;1684980;83;21635;-47
2021/08/14 00:03:40;;;;;;;6.92;5.85;;;;;;;26.57;46.73;102186.37;1676064;84;21137;-48
2021/08/14 00:06:07;;;;;;;21.37;7.15;;;;;;;26.54;46.58;102187.94;1661834;85;21057;-51
2021/08/14 00:08:33;;;;;;;7.90;6.05;;;;;;;26.51;46.45;102186.79;1670383;84;21156;-48
2021/08/14 00:11:03;;;;;;;8.03;6.22;;;;;;;26.49;46.37;102188.70;1681140;84;21677;-47
2021/08/14 00:13:31;;;;;;;9.38;5.70;;;;;;;26.44;46.20;102190.84;1675773;85;21053;-51
2021/08/14 00:15:59;;;;;;;6.67;5.67;;;;;;;26.33;45.95;102194.20;1659420;84;21103;-51
2021/08/14 00:18:28;;;;;;;7.85;6.42;;;;;;;26.29;45.63;102193.16;1666499;84;21031;-46
2021/08/14 00:20:54;;;;;;;8.18;5.95;;;;;;;26.26;45.98;102192.00;1675376;84;21524;-48
2021/08/14 00:23:21;;;;;;;9.33;6.78;;;;;;;26.26;47.02;102197.34;1682889;84;21115;-50
2021/08/14 00:25:49;;;;;;;9.68;7.37;;;;;;;26.23;48.15;102195.75;1669096;83;21556;-47
2021/08/14 00:28:17;;;;;;;8.43;6.10;;;;;;;26.21;48.55;102194.12;1662803;85;21078;-48
2021/08/14 00:30:44;;;;;;;7.22;6.00;;;;;;;26.19;47.68;102196.04;1662912;85;21574;-48
2021/08/14 00:33:10;;;;;;;7.22;5.97;;;;;;;26.19;46.75;102204.05;1662593;84;21018;-51
2021/08/14 00:35:38;;;;;;;9.40;5.92;;;;;;;26.16;46.08;102197.55;1666519;85;21086;-52
2021/08/14 00:38:05;;;;;;;6.95;5.80;;;;;;;26.12;45.42;102194.23;1669067;85;21486;-51
2021/08/14 00:40:33;;;;;;;6.30;5.70;;;;;;;26.11;45.57;102205.02;1667464;83;21094;-47
2021/08/14 00:43:02;;;;;;;8.65;5.30;;;;;;;26.09;45.55;102192.25;1685121;85;21004;-48
2021/08/14 00:45:30;;;;;;;10.28;7.20;;;;;;;26.09;45.42;102193.59;1686409;83;21048;-49
2021/08/14 00:47:57;;;;;;;11.28;8.43;;;;;;;26.06;47.66;102196.40;1689752;84;21126;-48
2021/08/14 00:50:24;;;;;;;9.63;7.95;;;;;;;26.06;49.01;102199.06;1688408;83;21479;-49
2021/08/14 00:52:50;;;;;;;16.73;9.20;;;;;;;26.01;49.83;102189.19;1695641;84;21026;-48
2021/08/14 00:55:17;;;;;;;11.50;8.53;;;;;;;25.99;50.37;102193.77;1697361;83;21031;-52
2021/08/14 00:57:44;;;;;;;15.08;9.90;;;;;;;26.00;50.64;102196.80;1684537;84;21096;-49
2021/08/14 01:00:12;;;;;;;11.33;7.85;;;;;;;25.96;50.85;102195.27;1683884;84;21043;-47
2021/08/14 01:02:38;;;;;;;9.05;7.65;;;;;;;25.94;51.16;102189.18;1677488;85;21503;-50
2021/08/14 01:05:06;;;;;;;13.10;8.65;;;;;;;25.92;50.98;102189.75;1660619;85;21075;-48
2021/08/14 01:07:34;;;;;;;10.00;8.35;;;;;;;25.91;51.00;102190.69;1693921;83;21078;-47
2021/08/14 01:10:02;;;;;;;11.25;7.95;;;;;;;25.89;50.62;102189.94;1683844;84;21091;-49
2021/08/14 01:12:29;;;;;;;10.48;8.45;;;;;;;25.88;50.37;102183.77;1692141;84;21078;-50
2021/08/14 01:14:56;;;;;;;11.65;7.70;;;;;;;25.86;50.56;102177.67;1736783;82;21066;-47
2021/08/14 01:17:24;;;;;;;12.47;8.20;;;;;;;25.86;50.56;102177.67;1732755;82;21045;-46
2021/08/14 01:19:51;;;;;;;14.68;8.40;;;;;;;25.87;50.84;102182.04;1736691;82;21009;-47
2021/08/14 01:22:19;;;;;;;10.45;8.43;;;;;;;25.83;50.90;102177.38;1739095;82;21594;-47
2021/08/14 01:24:47;;;;;;;14.70;9.18;;;;;;;25.83;50.90;102177.38;1736297;82;21046;-47
2021/08/14 01:27:15;;;;;;;11.48;8.53;;;;;;;25.82;50.83;102172.98;1732847;82;21034;-50
2021/08/14 01:29:42;;;;;;;11.57;8.73;;;;;;;25.78;50.72;102174.14;1737082;82;21046;-47
2021/08/14 01:32:09;;;;;;;10.40;8.35;;;;;;;25.79;50.73;102177.20;1737323;82;21128;-51
2021/08/14 01:34:40;;;;;;;10.40;8.35;;;;;;;25.77;50.83;102181.77;1738065;82;21526;-47
2021/08/14 01:37:08;;;;;;;10.95;7.53;;;;;;;25.76;50.67;102175.20;1665654;85;21581;-47
2021/08/14 01:39:36;;;;;;;10.23;8.18;;;;;;;25.73;49.90;102172.25;1672615;85;21097;-47
2021/08/14 01:42:06;;;;;;;9.68;7.50;;;;;;;25.71;49.34;102174.16;1675761;85;21009;-47
2021/08/14 01:44:34;;;;;;;10.03;8.60;;;;;;;25.71;49.34;102174.16;1671044;83;21170;-47
2021/08/14 01:47:02;;;;;;;14.23;9.25;;;;;;;25.70;50.37;102180.89;1675129;85;21052;-46
2021/08/14 01:49:29;;;;;;;13.75;10.23;;;;;;;25.66;50.74;102173.57;1669207;85;21110;-47
2021/08/14 01:51:56;;;;;;;14.78;10.20;;;;;;;25.66;50.74;102173.57;1671661;85;21086;-47
2021/08/14 01:54:25;;;;;;;12.05;9.58;;;;;;;25.61;51.04;102177.02;1675010;85;21620;-47
2021/08/14 01:56:52;;;;;;;11.68;9.35;;;;;;;25.57;51.04;102176.83;1666616;85;21537;-50
2021/08/14 01:59:20;;;;;;;17.50;9.95;;;;;;;25.44;51.12;102171.86;1669452;85;21135;-47
2021/08/14 02:01:47;;;;;;;12.65;9.65;;;;;;;25.44;51.12;102171.86;1659667;85;21547;-47
2021/08/14 02:04:15;;;;;;;14.55;10.10;;;;;;;25.40;51.21;102174.30;1677770;85;21067;-49
2021/08/14 02:06:41;;;;;;;11.93;9.23;;;;;;;25.40;51.21;102174.30;1670666;85;21084;-52
2021/08/14 02:09:10;;;;;;;11.10;9.10;;;;;;;25.36;51.61;102175.91;1666999;83;21075;-48
2021/08/14 02:11:38;;;;;;;10.75;9.43;;;;;;;25.31;51.91;102170.85;1667993;84;21088;-47
2021/08/14 02:14:06;;;;;;;9.88;8.73;;;;;;;25.26;52.39;102171.63;1665993;85;21111;-47
2021/08/14 02:16:33;;;;;;;12.68;8.95;;;;;;;25.26;52.39;102171.63;1668154;86;21567;-46
2021/08/14 02:19:01;;;;;;;12.43;9.18;;;;;;;25.25;52.15;102172.56;1668853;85;21036;-47
2021/08/14 02:21:28;;;;;;;12.23;8.90;;;;;;;25.26;52.06;102168.09;1670495;85;21524;-46
2021/08/14 02:23:55;;;;;;;10.55;8.98;;;;;;;25.31;51.98;102168.66;1667605;85;21064;-51
2021/08/14 02:26:23;;;;;;;11.53;9.20;;;;;;;25.30;51.93;102165.16;1670039;85;21154;-47
2021/08/14 02:28:50;;;;;;;12.55;8.70;;;;;;;25.29;51.84;102166.09;1678146;85;21135;-47
2021/08/14 02:31:17;;;;;;;10.38;9.03;;;;;;;25.29;51.74;102170.09;1659479;85;21064;-47
2021/08/14 02:34:21;;;;;;;12.58;9.20;;;;;;;25.18;51.26;102166.38;1705668;82;21112;-50
2021/08/14 02:36:48;;;;;;;10.35;8.98;;;;;;;25.18;51.26;102166.38;1737162;82;21050;-51
2021/08/14 02:39:17;;;;;;;12.30;9.40;;;;;;;25.11;51.96;102171.20;1735126;82;21507;-47
2021/08/14 02:41:43;;;;;;;12.40;9.10;;;;;;;25.06;52.22;102169.28;1735291;82;21104;-47
2021/08/14 02:44:10;;;;;;;13.70;9.80;;;;;;;25.07;52.07;102173.67;1739856;82;21105;-47
2021/08/14 02:46:38;;;;;;;11.48;8.93;;;;;;;25.06;51.78;102177.27;1737023;82;21491;-46
2021/08/14 02:49:06;;;;;;;10.70;8.48;;;;;;;25.07;51.76;102176.34;1726970;82;21049;-47
2021/08/14 02:51:34;;;;;;;12.18;9.18;;;;;;;25.06;51.51;102182.59;1731542;82;20973;-46
2021/08/14 02:54:02;;;;;;;13.10;8.65;;;;;;;25.06;51.51;102182.59;1734589;82;21087;-47
2021/08/14 02:56:29;;;;;;;12.70;8.75;;;;;;;25.05;51.67;102182.23;1734310;82;21171;-47
2021/08/14 02:58:56;;;;;;;11.30;8.65;;;;;;;25.01;51.75;102182.03;1731960;82;21014;-52
2021/08/14 03:01:22;;;;;;;11.22;8.58;;;;;;;25.01;51.75;102182.03;1736890;82;21007;-48
2021/08/14 03:03:51;;;;;;;12.98;8.90;;;;;;;24.98;51.74;102179.06;1737142;82;21062;-47
2021/08/14 03:06:27;;;;;;;10.35;8.08;;;;;;;24.96;51.82;102182.30;1738375;82;21042;-48
2021/08/14 03:08:55;;;;;;;10.45;8.20;;;;;;;24.96;51.92;102189.42;1730921;82;21034;-48
2021/08/14 03:11:24;;;;;;;15.58;8.03;;;;;;;24.93;51.89;102186.95;1730761;82;21090;-47
2021/08/14 03:13:52;;;;;;;15.13;8.35;;;;;;;24.92;52.06;102187.89;1735553;82;21058;-51
2021/08/14 03:16:20;;;;;;;10.80;8.18;;;;;;;24.90;52.00;102189.32;1733980;82;21013;-47
2021/08/14 03:18:49;;;;;;;13.43;8.48;;;;;;;24.90;52.14;102196.44;1736365;82;21066;-47
2021/08/14 03:21:15;;;;;;;12.10;8.13;;;;;;;24.86;52.05;102186.92;1737633;82;21029;-49
2021/08/14 03:23:43;;;;;;;12.75;7.65;;;;;;;24.83;51.94;102196.44;1731916;82;21044;-47
2021/08/14 03:26:10;;;;;;;11.83;8.58;;;;;;;24.84;51.94;102199.00;1734629;82;21548;-47
2021/08/14 03:28:36;;;;;;;17.67;8.90;;;;;;;24.84;52.11;102198.13;1733927;82;21064;-49
2021/08/14 03:31:04;;;;;;;9.40;7.90;;;;;;;24.83;52.20;102196.44;1738114;82;21047;-47
2021/08/14 03:33:30;;;;;;;12.63;7.87;;;;;;;24.83;52.14;102197.77;1734491;82;21453;-48
2021/08/14 03:35:57;;;;;;;11.70;8.08;;;;;;;24.81;52.09;102196.50;1739351;82;20983;-51
2021/08/14 03:38:23;;;;;;;12.70;8.70;;;;;;;24.80;52.01;102195.27;1737673;82;21061;-47
2021/08/14 03:40:50;;;;;;;16.67;8.78;;;;;;;24.78;52.19;102195.83;1735459;82;21131;-48
2021/08/14 03:43:19;;;;;;;11.70;8.05;;;;;;;24.78;52.12;102197.16;1735042;82;21015;-46
2021/08/14 03:45:46;;;;;;;15.63;8.63;;;;;;;24.78;52.08;102197.16;1735533;82;21038;-46
2021/08/14 03:48:13;;;;;;;12.70;7.62;;;;;;;24.76;52.19;102201.72;1738831;82;21026;-47
2021/08/14 03:50:40;;;;;;;11.95;8.25;;;;;;;24.74;52.23;102202.28;1734410;82;20975;-50
2021/08/14 03:53:06;;;;;;;11.73;7.15;;;;;;;24.73;52.22;102199.22;1735704;82;21054;-47
2021/08/14 03:55:33;;;;;;;16.57;8.18;;;;;;;24.75;52.23;102196.03;1737159;82;21043;-46
2021/08/14 03:58:00;;;;;;;13.30;7.78;;;;;;;24.74;52.31;102203.15;1738467;82;21046;-46
2021/08/14 04:00:28;;;;;;;10.65;7.62;;;;;;;24.76;52.40;102200.39;1735465;82;20987;-48
2021/08/14 04:02:55;;;;;;;10.35;8.40;;;;;;;24.77;52.46;102200.29;1735347;82;21506;-50
2021/08/14 04:05:22;;;;;;;11.22;8.05;;;;;;;24.78;52.59;102202.48;1738650;82;21034;-47
2021/08/14 04:07:49;;;;;;;10.75;8.68;;;;;;;24.79;52.68;102193.56;1737339;82;21075;-47
2021/08/14 04:10:16;;;;;;;16.25;8.08;;;;;;;24.81;52.60;102195.17;1738738;82;21502;-47
2021/08/14 04:12:42;;;;;;;11.60;8.03;;;;;;;24.84;52.55;102200.33;1736358;82;21062;-47
2021/08/14 04:15:11;;;;;;;28.35;9.15;;;;;;;24.85;52.58;102197.20;1733883;82;21046;-48
2021/08/14 04:17:38;;;;;;;18.85;8.50;;;;;;;24.88;52.59;102198.34;1734275;82;21541;-51
2021/08/14 04:20:09;;;;;;;17.73;7.92;;;;;;;24.87;52.80;102197.97;1737611;82;21038;-47
2021/08/14 04:22:35;;;;;;;115.45;16.17;;;;;;;24.87;52.88;102191.31;1739452;82;21022;-48
2021/08/14 04:25:04;;;;;;;16.32;8.63;;;;;;;24.93;52.90;102198.47;1733744;82;21089;-47
2021/08/14 04:27:30;;;;;;;11.20;8.48;;;;;;;24.95;53.12;102196.58;1735509;82;21524;-47
2021/08/14 04:29:57;;;;;;;11.78;8.63;;;;;;;24.91;53.25;102203.50;1735324;82;20987;-46
2021/08/14 04:32:24;;;;;;;11.15;8.10;;;;;;;24.87;53.32;102203.30;1738221;82;21573;-46
2021/08/14 04:34:51;;;;;;;15.48;8.18;;;;;;;24.87;53.34;102201.47;1732863;82;21077;-47
2021/08/14 04:37:17;;;;;;;11.83;7.45;;;;;;;24.89;53.13;102203.56;1733729;82;20990;-49
2021/08/14 04:39:44;;;;;;;12.53;7.87;;;;;;;24.90;53.01;102201.77;1731530;82;21097;-49
2021/08/14 04:42:10;;;;;;;9.95;7.50;;;;;;;24.91;52.91;102207.49;1732504;82;21022;-52
2021/08/14 04:44:37;;;;;;;9.48;7.35;;;;;;;24.94;52.58;102208.16;1738275;82;21185;-47
2021/08/14 04:47:04;;;;;;;9.98;6.92;;;;;;;25.00;52.48;102205.59;1736759;82;21003;-50
2021/08/14 04:49:31;;;;;;;12.50;7.97;;;;;;;25.02;52.58;102207.70;1737640;82;21070;-48
2021/08/14 04:51:57;;;;;;;12.37;7.62;;;;;;;24.94;52.76;102212.63;1739241;82;21034;-50
2021/08/14 04:54:24;;;;;;;9.88;7.20;;;;;;;24.92;52.57;102214.52;1740316;82;20987;-48
2021/08/14 04:56:51;;;;;;;10.93;7.92;;;;;;;24.99;52.58;102214.55;1737730;82;21519;-47
2021/08/14 04:59:18;;;;;;;15.48;8.13;;;;;;;25.00;52.50;102210.92;1735536;82;21082;-48
2021/08/14 05:01:45;;;;;;;13.38;8.30;;;;;;;24.95;52.91;102213.89;1734486;82;21038;-48
2021/08/14 05:04:12;;;;;;;11.70;7.78;;;;;;;24.94;52.99;102219.28;1737661;82;21054;-47
2021/08/14 05:06:39;;;;;;;10.43;8.05;;;;;;;24.92;52.89;102213.19;1737755;82;20994;-48
2021/08/14 05:09:06;;;;;;;10.58;8.05;;;;;;;24.93;52.99;102214.91;1738683;82;21062;-52
2021/08/14 05:11:34;;;;;;;12.18;8.15;;;;;;;24.94;53.00;102215.28;1731559;82;21580;-47
2021/08/14 05:14:01;;;;;;;12.60;7.50;;;;;;;24.99;52.89;102215.89;1736346;82;21522;-47
2021/08/14 05:16:27;;;;;;;13.03;8.33;;;;;;;25.02;52.80;102211.70;1739266;82;21026;-49
2021/08/14 05:18:55;;;;;;;9.60;7.65;;;;;;;25.04;52.57;102207.13;1733403;82;21239;-47
2021/08/14 05:21:23;;;;;;;12.15;7.62;;;;;;;25.05;52.48;102214.19;1740267;82;21538;-48
2021/08/14 05:23:51;;;;;;;10.55;7.90;;;;;;;25.08;52.47;102210.00;1737790;82;21026;-48
2021/08/14 05:26:18;;;;;;;9.85;7.53;;;;;;;25.13;52.49;102215.92;1730638;82;21491;-47
2021/08/14 05:28:45;;;;;;;10.90;7.92;;;;;;;25.16;52.37;102210.43;1734522;82;21093;-48
2021/08/14 05:31:11;;;;;;;7.50;6.67;;;;;;;25.21;52.08;102210.99;1736521;82;21010;-51
2021/08/14 05:33:37;;;;;;;12.68;7.72;;;;;;;25.22;52.05;102214.05;1734392;82;21478;-52
2021/08/14 05:36:08;;;;;;;13.62;7.75;;;;;;;25.28;52.11;102217.69;1728852;82;21180;-47
2021/08/14 05:38:34;;;;;;;19.57;8.50;;;;;;;25.28;52.27;102212.36;1737953;82;21034;-48
2021/08/14 05:41:03;;;;;;;12.20;6.97;;;;;;;25.35;51.67;102220.34;1735870;82;21010;-47
2021/08/14 05:43:30;;;;;;;11.73;7.58;;;;;;;25.35;51.67;102220.34;1734736;82;21459;-48
2021/08/14 05:45:57;;;;;;;11.53;8.20;;;;;;;25.39;51.53;102221.04;1728615;82;20977;-47
2021/08/14 05:48:23;;;;;;;11.35;8.20;;;;;;;25.48;51.47;102224.03;1721237;82;21091;-49
2021/08/14 05:50:50;;;;;;;12.18;10.70;;;;;;;25.54;51.29;102218.31;1723836;82;21566;-47
2021/08/14 05:53:18;;;;;;;12.90;10.25;;;;;;;25.60;51.50;102219.27;1717901;82;21091;-47
2021/08/14 05:55:46;;;;;;;15.13;9.93;;;;;;;25.72;51.38;102222.52;1713607;82;21038;-46
2021/08/14 05:58:14;;;;;;;17.23;8.73;;;;;;;25.94;51.58;102223.85;1725846;82;21050;-49
2021/08/14 06:00:41;;;;;;;12.47;8.00;;;;;;;26.07;50.94;102222.14;1721419;82;21022;-49
2021/08/14 06:03:08;;;;;;;12.80;8.45;;;;;;;26.07;50.94;102222.14;1727273;82;21854;-47
2021/08/14 06:05:35;;;;;;;11.30;8.15;;;;;;;26.16;50.59;102220.23;1724750;81;21030;-49
2021/08/14 06:08:04;;;;;;;17.70;9.70;;;;;;;26.27;50.54;102217.75;1716261;82;21049;-49
2021/08/14 06:10:31;;;;;;;13.48;11.53;;;;;;;26.52;49.63;102219.22;1719208;82;21089;-49
2021/08/14 06:12:59;;;;;;;16.62;8.93;;;;;;;26.52;49.63;102219.22;1722490;82;21546;-47
2021/08/14 06:15:26;;;;;;;11.15;9.58;;;;;;;26.59;48.98;102212.03;1725001;82;21089;-50
2021/08/14 06:17:55;;;;;;;16.55;9.65;;;;;;;26.64;49.08;102217.07;1720072;82;21039;-46
2021/08/14 06:20:22;;;;;;;11.75;8.98;;;;;;;26.68;49.01;102207.90;1721818;82;21018;-49
2021/08/14 06:22:48;;;;;;;19.15;10.48;;;;;;;26.75;48.82;102209.73;1720456;82;21046;-47
2021/08/14 06:25:15;;;;;;;15.15;8.33;;;;;;;26.75;48.82;102209.73;1724015;82;21542;-45
2021/08/14 06:27:41;;;;;;;10.15;7.97;;;;;;;26.79;48.84;102211.23;1723293;82;21522;-46
2021/08/14 06:30:10;;;;;;;15.30;10.43;;;;;;;26.83;48.61;102205.56;1720815;82;21030;-49
2021/08/14 06:32:36;;;;;;;16.07;8.28;;;;;;;26.87;48.49;102204.42;1720920;82;21447;-50
2021/08/14 06:35:05;;;;;;;12.00;7.67;;;;;;;26.90;48.50;102208.21;1719282;81;21027;-47
2021/08/14 06:37:44;;;;;;;9.20;7.40;;;;;;;26.93;48.59;102209.36;1717793;82;21023;-49
2021/08/14 06:40:13;;;;;;;8.85;7.83;;;;;;;26.96;48.51;102213.14;1713699;81;21047;-46
2021/08/14 06:42:41;;;;;;;11.38;7.58;;;;;;;27.00;48.38;102209.30;1728238;81;21058;-48
2021/08/14 06:45:09;;;;;;;8.95;7.72;;;;;;;27.07;48.26;102210.61;1728350;82;21070;-48
2021/08/14 06:47:36;;;;;;;11.03;7.15;;;;;;;27.07;48.26;102210.61;1715705;82;21021;-47
2021/08/14 06:50:04;;;;;;;10.05;6.95;;;;;;;27.16;48.01;102215.81;1724941;82;21447;-48
2021/08/14 06:52:31;;;;;;;20.35;8.10;;;;;;;27.21;48.07;102215.87;1726844;82;21517;-46
2021/08/14 06:54:58;;;;;;;11.45;7.40;;;;;;;27.26;48.11;102216.42;1727332;82;20983;-48
2021/08/14 06:57:25;;;;;;;10.05;7.47;;;;;;;27.29;47.80;102216.19;1727026;82;21499;-46
2021/08/14 06:59:52;;;;;;;12.37;7.87;;;;;;;27.30;47.78;102221.93;1726274;82;21108;-49
2021/08/14 07:02:19;;;;;;;10.32;7.50;;;;;;;27.33;47.60;102219.03;1722642;82;21031;-49
2021/08/14 07:04:45;;;;;;;14.53;7.42;;;;;;;27.34;47.14;102216.78;1725161;82;20944;-47
2021/08/14 07:07:16;;;;;;;10.30;7.12;;;;;;;27.35;47.03;102222.48;1729873;82;21517;-47
2021/08/14 07:09:43;;;;;;;9.88;6.75;;;;;;;27.34;47.29;102216.78;1734440;82;21128;-49
2021/08/14 07:12:10;;;;;;;9.43;6.00;;;;;;;27.35;47.06;102218.48;1734078;82;21097;-51
2021/08/14 07:14:39;;;;;;;10.75;7.00;;;;;;;27.36;46.82;102216.67;1729146;82;21074;-46
2021/08/14 07:17:06;;;;;;;12.33;6.90;;;;;;;27.35;46.65;102213.13;1719738;82;21027;-50
2021/08/14 07:19:33;;;;;;;13.08;7.85;;;;;;;27.35;46.56;102215.80;1727634;82;20983;-51
2021/08/14 07:22:02;;;;;;;8.43;7.30;;;;;;;27.38;46.56;102221.42;1684532;84;21614;-48
2021/08/14 07:24:28;;;;;;;8.78;6.85;;;;;;;27.38;46.17;102223.63;1685382;84;21070;-49
2021/08/14 07:26:57;;;;;;;10.03;7.62;;;;;;;27.42;45.88;102221.59;1680481;84;21026;-47
2021/08/14 07:29:25;;;;;;;9.10;6.72;;;;;;;27.48;46.04;102220.30;1681927;84;22268;-48
2021/08/14 07:31:52;;;;;;;7.22;6.45;;;;;;;27.54;45.73;102219.87;1681721;85;21059;-48
2021/08/14 07:34:19;;;;;;;7.55;6.03;;;;;;;27.57;45.61;102212.98;1665448;85;21072;-47
2021/08/14 07:36:46;;;;;;;7.47;6.65;;;;;;;27.62;45.53;102221.52;1672462;85;21091;-48
2021/08/14 07:39:12;;;;;;;14.50;8.75;;;;;;;27.65;45.52;102214.64;1671974;85;21021;-49
2021/08/14 07:41:40;;;;;;;13.38;10.05;;;;;;;27.71;45.38;102211.53;1673991;84;20981;-51
2021/08/14 07:44:08;;;;;;;11.38;10.18;;;;;;;27.73;45.34;102210.47;1670252;85;21017;-48
2021/08/14 07:46:35;;;;;;;15.25;11.20;;;;;;;27.78;45.42;102208.81;1671453;84;21113;-47
2021/08/14 07:49:02;;;;;;;9.85;7.75;;;;;;;27.82;45.58;102214.31;1679583;83;21827;-48
2021/08/14 07:51:28;;;;;;;11.60;6.90;;;;;;;27.87;45.87;102206.80;1678296;83;21039;-48
2021/08/14 07:53:55;;;;;;;8.30;6.12;;;;;;;27.95;45.65;102211.12;1673081;85;20992;-50
2021/08/14 07:56:22;;;;;;;8.25;6.30;;;;;;;28.00;45.22;102207.68;1668188;85;21504;-54
2021/08/14 07:58:48;;;;;;;7.65;6.25;;;;;;;28.06;45.17;102213.92;1665152;85;21080;-49
2021/08/14 08:01:15;;;;;;;19.80;6.08;;;;;;;28.11;44.09;102211.28;1671678;85;21496;-49
2021/08/14 08:03:42;;;;;;;7.90;5.28;;;;;;;28.15;44.27;102212.77;1668813;85;21001;-47
2021/08/14 08:06:09;;;;;;;7.45;5.05;;;;;;;28.21;44.15;102206.13;1662844;85;21076;-49
2021/08/14 08:08:38;;;;;;;7.45;5.00;;;;;;;28.27;42.96;102207.50;1662893;85;21080;-48
2021/08/14 08:11:05;;;;;;;6.78;5.10;;;;;;;28.32;43.08;102204.84;1688368;84;21094;-48
2021/08/14 08:13:31;;;;;;;13.32;5.83;;;;;;;28.36;43.21;102207.67;1695814;83;20995;-50
2021/08/14 08:15:58;;;;;;;7.45;4.50;;;;;;;28.40;42.92;102203.80;1674335;85;21009;-50
2021/08/14 08:18:25;;;;;;;4.90;4.40;;;;;;;28.44;42.36;102202.60;1674577;85;21009;-48
2021/08/14 08:20:52;;;;;;;6.83;5.60;;;;;;;28.48;42.09;102200.06;1674131;85;21060;-47
2021/08/14 08:23:18;;;;;;;5.72;4.45;;;;;;;28.52;41.50;102199.38;1673221;85;21041;-50
2021/08/14 08:25:46;;;;;;;5.40;4.25;;;;;;;28.56;41.58;102193.72;1675652;84;21102;-49
2021/08/14 08:28:12;;;;;;;6.92;4.78;;;;;;;28.61;41.77;102186.18;1676147;85;21017;-50
2021/08/14 08:30:39;;;;;;;9.65;4.80;;;;;;;28.66;41.73;102187.19;1677257;85;21012;-52
2021/08/14 08:33:05;;;;;;;6.50;4.42;;;;;;;28.70;41.48;102185.98;1679216;84;20985;-49
2021/08/14 08:35:32;;;;;;;33.18;7.37;;;;;;;28.76;41.10;102184.18;1668441;85;21018;-49
2021/08/14 08:37:59;;;;;;;8.08;4.97;;;;;;;28.82;41.05;102185.91;1673234;85;21087;-48
2021/08/14 08:40:26;;;;;;;6.33;4.22;;;;;;;28.88;41.75;102179.22;1674798;85;21552;-50
2021/08/14 08:42:53;;;;;;;5.22;4.40;;;;;;;28.92;40.84;102177.55;1660107;83;21475;-49
2021/08/14 08:45:20;;;;;;;6.30;5.67;;;;;;;28.97;40.82;102176.69;1665275;84;21048;-48
2021/08/14 08:47:49;;;;;;;11.57;5.55;;;;;;;29.03;40.94;102178.55;1675578;85;21146;-49
2021/08/14 08:50:16;;;;;;;7.33;4.90;;;;;;;29.07;40.14;102178.67;1674739;84;21028;-50
2021/08/14 08:52:44;;;;;;;12.18;4.62;;;;;;;29.13;40.86;102171.02;1675238;84;21024;-48
2021/08/14 08:55:13;;;;;;;6.15;3.90;;;;;;;29.21;40.47;102170.45;1671836;85;20973;-49
2021/08/14 08:57:40;;;;;;;6.05;4.67;;;;;;;29.27;39.53;102167.29;1555825;90;21042;-49
2021/08/14 09:00:14;;;;;;;5.95;4.90;;;;;;;29.31;39.44;102162.92;1555662;92;21181;-50
2021/08/14 09:02:39;;;;;;;9.13;5.25;;;;;;;29.36;39.85;102159.88;1599133;89;21100;-48
2021/08/14 09:05:17;;;;;;;8.80;5.17;;;;;;;29.41;39.36;102159.02;1601337;88;21093;-50
2021/08/14 09:07:46;;;;;;;5.90;3.92;;;;;;;29.44;39.04;102160.13;1588107;88;21560;-54
2021/08/14 09:10:24;;;;;;;12.85;4.10;;;;;;;29.47;38.95;102162.59;1518135;93;21068;-49
2021/08/14 09:12:51;;;;;;;15.30;5.10;;;;;;;29.49;39.35;102158.78;1516444;93;21106;-49
2021/08/14 09:15:32;;;;;;;10.23;4.10;;;;;;;29.52;38.53;102156.35;1507297;93;21691;-48
2021/08/14 09:18:05;;;;;;;10.88;5.25;;;;;;;29.56;38.66;102156.47;1509350;92;21137;-48
2021/08/14 09:20:35;;;;;;;7.58;3.77;;;;;;;29.60;39.33;102153.91;1513444;93;21169;-48
2021/08/14 09:23:10;;;;;;;4.53;3.55;;;;;;;29.63;38.63;102146.98;1518142;93;21155;-48
2021/08/14 09:25:47;;;;;;;4.08;3.10;;;;;;;29.63;38.53;102148.32;1520755;93;21056;-49
2021/08/14 09:28:16;;;;;;;6.95;3.40;;;;;;;29.68;38.25;102146.97;1515016;93;21976;-47
2021/08/14 09:30:56;;;;;;;4.70;3.12;;;;;;;29.72;37.44;102140.85;1518028;93;21153;-50
2021/08/14 09:33:29;;;;;;;4.97;3.08;;;;;;;29.77;37.05;102141.38;1533976;92;21336;-49
2021/08/14 09:36:01;;;;;;;3.85;3.05;;;;;;;29.83;37.24;102139.55;1524679;92;21121;-50
2021/08/14 09:38:48;;;;;;;6.30;2.80;;;;;;;29.88;37.18;102130.65;1445996;97;21137;-50
2021/08/14 09:41:20;;;;;;;2.98;2.62;;;;;;;29.94;37.62;102134.17;1424937;100;21612;-47
2021/08/14 09:43:51;;;;;;;4.45;3.25;;;;;;;29.99;37.72;102138.66;1432687;99;21108;-50
2021/08/14 09:46:20;;;;;;;6.92;3.60;;;;;;;30.03;36.76;102137.44;1422206;100;21157;-50
2021/08/14 09:48:56;;;;;;;5.95;4.90;;;;;;;30.09;36.82;102135.59;1405055;99;21676;-50
2021/08/14 09:51:31;;;;;;;4.15;3.75;;;;;;;30.16;36.99;102135.45;1420528;100;21153;-49
2021/08/14 09:54:01;;;;;;;4.47;3.72;;;;;;;30.22;37.30;102134.09;1408684;100;21171;-50
2021/08/14 09:56:34;;;;;;;;;;;;;;;30.25;37.74;102126.62;1380873;103;21164;-51
2021/08/14 09:58:58;;;;;;;3.77;3.17;;;;;;;30.32;37.25;102122.50;1389113;102;20166;-50
2021/08/14 10:01:25;;;;;;;4.37;2.98;;;;;;;30.37;37.45;102122.98;1398620;100;21130;-49
2021/08/14 10:03:53;;;;;;;3.55;2.77;;;;;;;30.43;37.02;102123.81;1425113;98;21154;-50
2021/08/14 10:06:21;;;;;;;5.42;3.37;;;;;;;30.47;36.16;102123.92;1463294;93;21120;-48
2021/08/14 10:08:47;;;;;;;23.80;5.08;;;;;;;30.50;35.39;102120.95;1501936;93;21237;-49
2021/08/14 10:11:16;;;;;;;5.12;2.75;;;;;;;30.51;36.00;102117.30;1487382;93;21117;-49
2021/08/14 10:13:45;;;;;;;55.75;6.92;;;;;;;30.53;35.85;102115.34;1502505;93;21072;-47
2021/08/14 10:16:12;;;;;;;14.75;3.90;;;;;;;30.55;35.57;102112.52;1517298;92;21147;-49
2021/08/14 10:18:44;;;;;;;9.95;2.90;;;;;;;30.56;35.45;102110.69;1528799;92;21139;-50
2021/08/14 10:21:15;;;;;;;5.65;3.08;;;;;;;30.58;35.48;102108.73;1499517;94;21067;-50
2021/08/14 10:23:44;;;;;;;4.47;2.98;;;;;;;30.61;35.26;102105.77;1489635;94;21146;-49
2021/08/14 10:26:15;;;;;;;4.95;3.15;;;;;;;30.63;35.24;102101.11;1540767;92;21129;-48
2021/08/14 10:28:51;;;;;;;7.12;3.20;;;;;;;30.69;35.09;102104.13;1536665;91;21151;-49
2021/08/14 10:31:39;;;;;;;3.75;2.87;;;;;;;30.76;35.35;102104.47;1594882;86;21092;-50
2021/08/14 10:34:17;;;;;;;6.75;3.60;;;;;;;30.81;34.93;102097.70;1642919;86;21006;-52
2021/08/14 10:36:46;;;;;;;4.00;3.27;;;;;;;30.90;35.08;102100.13;1620315;88;21048;-47
2021/08/14 10:39:20;;;;;;;5.03;3.47;;;;;;;30.96;34.70;102097.78;1619600;87;21043;-49
2021/08/14 10:41:50;;;;;;;4.37;2.95;;;;;;;31.01;34.76;102095.56;1620801;88;21075;-50
2021/08/14 10:44:46;;;;;;;7.17;3.65;;;;;;;31.06;34.71;102105.41;1616992;88;21451;-49
2021/08/14 10:47:41;;;;;;;6.80;2.77;;;;;;;31.11;34.76;102098.29;1616098;87;21515;-47
2021/08/14 10:50:07;;;;;;;2.85;2.52;;;;;;;31.15;33.54;102101.07;1608022;87;21105;-50
2021/08/14 10:52:35;;;;;;;2.80;2.50;;;;;;;31.19;33.13;102096.64;1632348;88;21002;-49
2021/08/14 10:55:07;;;;;;;3.77;2.47;;;;;;;31.23;33.36;102098.56;1622049;87;21566;-51
2021/08/14 10:57:44;;;;;;;4.22;2.80;;;;;;;31.27;33.28;102097.30;1584298;87;21526;-50
2021/08/14 11:00:17;;;;;;;5.20;3.25;;;;;;;31.30;33.13;102094.36;1538839;91;21092;-48
2021/08/14 11:03:03;;;;;;;17.98;7.42;;;;;;;31.31;33.34;102093.36;1535857;90;21077;-47
2021/08/14 11:05:29;;;;;;;4.47;3.80;;;;;;;31.35;33.42;102092.62;1544153;91;21040;-49
2021/08/14 11:08:00;;;;;;;12.90;4.00;;;;;;;31.39;33.20;102100.29;1542494;92;21563;-48
2021/08/14 11:10:40;;;;;;;8.78;7.85;;;;;;;31.43;33.02;102098.20;1523620;92;21915;-47
2021/08/14 11:13:33;;;;;;;5.70;4.60;;;;;;;31.45;32.56;102094.37;1516641;92;21732;-49
2021/08/14 11:16:00;;;;;;;5.08;4.00;;;;;;;31.48;32.65;102086.52;1510564;93;21101;-46
2021/08/14 11:18:51;;;;;;;5.80;5.30;;;;;;;31.50;32.47;102093.48;1490178;94;21659;-49
2021/08/14 11:21:18;;;;;;;6.17;2.72;;;;;;;31.53;32.90;102090.50;1506373;95;21153;-50
2021/08/14 11:24:00;;;;;;;5.78;3.25;;;;;;;31.53;32.74;102094.53;1474315;95;21116;-49
2021/08/14 11:26:37;;;;;;;4.55;2.70;;;;;;;31.55;32.95;102095.25;1463454;97;21059;-49